createdAt,value
2022-12-05T00:00:31.013Z,74.74
2022-12-05T00:03:12.112Z,75.12
2022-12-05T00:05:44.486Z,74.86
2022-12-05T00:08:17.001Z,74.58
2022-12-05T00:10:49.276Z,74.89
2022-12-05T00:13:21.636Z,74.71
2022-12-05T00:15:53.998Z,74.86
2022-12-05T00:18:26.265Z,74.96
2022-12-05T00:20:58.936Z,74.88
2022-12-05T00:23:31.631Z,74.94
2022-12-05T00:26:06.279Z,74.93
2022-12-05T00:28:38.692Z,74.66
2022-12-05T00:31:09.980Z,74.68
2022-12-05T00:33:42.461Z,74.87
2022-12-05T00:36:16.720Z,74.83
2022-12-05T00:38:49.271Z,74.87
2022-12-05T00:41:23.002Z,74.52
2022-12-05T00:43:55.435Z,74.77
2022-12-05T00:46:30.040Z,74.72
2022-12-05T00:49:03.474Z,74.82
2022-12-05T00:51:37.021Z,74.88
2022-12-05T00:54:10.928Z,74.80
2022-12-05T00:56:43.244Z,74.96
2022-12-05T00:59:18.797Z,74.78
2022-12-05T01:01:51.762Z,74.87
2022-12-05T01:04:25.690Z,75.26
2022-12-05T01:06:59.714Z,75.18
2022-12-05T01:09:33.225Z,74.81
2022-12-05T01:12:05.799Z,74.64
2022-12-05T01:14:38.004Z,74.63
2022-12-05T01:17:11.155Z,74.75
2022-12-05T01:19:43.453Z,74.81
2022-12-05T01:22:15.767Z,74.84
2022-12-05T01:24:48.116Z,74.87
2022-12-05T01:27:20.427Z,74.83
2022-12-05T01:29:52.726Z,74.63
2022-12-05T01:32:24.956Z,74.60
2022-12-05T01:34:57.463Z,74.71
2022-12-05T01:37:28.060Z,74.63
2022-12-05T01:40:00.444Z,74.84
2022-12-05T01:42:32.673Z,74.81
2022-12-05T01:45:18.160Z,74.82
2022-12-05T01:47:50.427Z,74.70
2022-12-05T01:50:23.019Z,74.69
2022-12-05T01:52:55.302Z,74.66
2022-12-05T01:55:27.708Z,74.58
2022-12-05T01:58:00.558Z,74.59
2022-12-05T02:00:33.020Z,74.50
2022-12-05T02:03:09.091Z,74.60
2022-12-05T02:05:41.497Z,74.74
2022-12-05T02:08:14.554Z,74.57
2022-12-05T02:10:49.182Z,74.85
2022-12-05T02:13:44.794Z,74.71
2022-12-05T02:16:37.472Z,74.77
2022-12-05T02:19:23.045Z,74.67
2022-12-05T02:22:28.865Z,74.53
2022-12-05T02:25:38.467Z,74.73
2022-12-05T02:28:35.279Z,74.89
2022-12-05T02:31:11.647Z,74.71
2022-12-05T02:33:47.840Z,74.64
2022-12-05T02:36:24.143Z,74.65
2022-12-05T02:39:04.769Z,74.75
2022-12-05T02:41:41.099Z,74.74
2022-12-05T02:44:17.250Z,74.71
2022-12-05T02:46:50.340Z,74.89
2022-12-05T02:49:26.396Z,74.90
2022-12-05T02:52:01.264Z,74.79
2022-12-05T02:54:37.183Z,74.69
2022-12-05T02:57:10.902Z,74.53
2022-12-05T02:59:43.158Z,74.50
2022-12-05T03:02:26.555Z,74.38
2022-12-05T03:05:16.091Z,74.50
2022-12-05T03:07:50.352Z,74.82
2022-12-05T03:10:25.215Z,74.68
2022-12-05T03:13:00.366Z,74.48
2022-12-05T03:15:34.442Z,74.65
2022-12-05T03:18:10.341Z,74.54
2022-12-05T03:20:47.442Z,74.57
2022-12-05T03:23:24.839Z,74.77
2022-12-05T03:26:05.250Z,74.93
2022-12-05T03:28:43.511Z,74.65
2022-12-05T03:31:18.197Z,74.51
2022-12-05T03:33:53.641Z,74.68
2022-12-05T03:36:34.010Z,74.53
2022-12-05T03:39:10.372Z,74.60
2022-12-05T03:41:44.790Z,74.63
2022-12-05T03:44:19.466Z,74.60
2022-12-05T03:46:54.405Z,74.66
2022-12-05T03:49:34.172Z,74.67
2022-12-05T03:52:11.152Z,74.65
2022-12-05T03:54:45.509Z,74.58
2022-12-05T03:57:21.148Z,74.30
2022-12-05T03:59:56.751Z,74.68
2022-12-05T04:02:31.995Z,74.74
2022-12-05T04:05:06.771Z,74.80
2022-12-05T04:07:40.772Z,74.72
2022-12-05T04:10:17.532Z,74.64
2022-12-05T04:12:50.189Z,74.61
2022-12-05T04:15:26.015Z,74.67
2022-12-05T04:18:01.046Z,74.76
2022-12-05T04:20:54.408Z,74.84
2022-12-05T04:23:27.361Z,74.68
2022-12-05T04:26:07.015Z,74.72
2022-12-05T04:28:43.357Z,74.86
2022-12-05T04:31:19.475Z,74.79
2022-12-05T04:33:55.434Z,74.76
2022-12-05T04:36:32.038Z,74.79
2022-12-05T04:39:10.695Z,74.76
2022-12-05T04:41:50.244Z,75.00
2022-12-05T04:44:25.244Z,74.89
2022-12-05T04:46:59.029Z,74.81
2022-12-05T04:49:32.664Z,74.73
2022-12-05T04:52:09.488Z,74.54
2022-12-05T04:54:45.488Z,74.58
2022-12-05T04:57:20.061Z,74.62
2022-12-05T04:59:53.632Z,74.56
2022-12-05T05:02:33.224Z,74.54
2022-12-05T05:05:10.967Z,74.50
2022-12-05T05:07:50.489Z,74.63
2022-12-05T05:10:27.127Z,74.65
2022-12-05T05:12:59.401Z,74.78
2022-12-05T05:15:32.238Z,74.79
2022-12-05T05:18:05.032Z,74.86
2022-12-05T05:20:37.323Z,74.69
2022-12-05T05:23:10.132Z,74.89
2022-12-05T05:25:42.537Z,74.86
2022-12-05T05:28:14.860Z,74.94
2022-12-05T05:30:47.754Z,74.75
2022-12-05T05:33:21.132Z,74.84
2022-12-05T05:35:53.402Z,74.78
2022-12-05T05:38:25.656Z,74.82
2022-12-05T05:40:57.941Z,74.96
2022-12-05T05:43:30.237Z,74.77
2022-12-05T05:46:06.771Z,74.78
2022-12-05T05:48:40.088Z,74.57
2022-12-05T05:51:14.715Z,74.66
2022-12-05T05:53:48.039Z,74.80
2022-12-05T05:56:22.757Z,74.91
2022-12-05T05:59:01.391Z,74.65
2022-12-05T06:01:34.739Z,74.75
2022-12-05T06:04:08.000Z,74.72
2022-12-05T06:06:41.426Z,74.59
2022-12-05T06:09:14.075Z,74.46
2022-12-05T06:11:44.500Z,74.59
2022-12-05T06:14:17.244Z,74.59
2022-12-05T06:16:52.827Z,74.73
2022-12-05T06:19:26.601Z,74.88
2022-12-05T06:22:07.120Z,74.64
2022-12-05T06:24:43.406Z,74.68
2022-12-05T06:31:36.819Z,74.58
2022-12-05T06:34:12.120Z,74.48
2022-12-05T06:36:46.990Z,74.74
2022-12-05T06:39:19.774Z,74.70
2022-12-05T06:41:55.014Z,74.81
2022-12-05T06:44:29.224Z,74.67
2022-12-05T06:47:03.396Z,74.64
2022-12-05T06:49:38.363Z,74.47
2022-12-05T06:52:11.571Z,74.64
2022-12-05T06:54:47.772Z,74.79
2022-12-05T06:57:22.007Z,74.76
2022-12-05T07:04:43.813Z,74.70
2022-12-05T07:07:17.808Z,74.70
2022-12-05T07:09:53.956Z,74.64
2022-12-05T07:12:29.092Z,74.73
2022-12-05T07:15:02.125Z,74.59
2022-12-05T07:23:15.282Z,74.49
2022-12-05T07:25:47.573Z,74.42
2022-12-05T07:28:20.142Z,74.32
2022-12-05T07:30:59.827Z,74.52
2022-12-05T07:33:32.144Z,74.60
2022-12-05T07:36:05.717Z,74.64
2022-12-05T07:38:38.120Z,74.77
2022-12-05T07:41:13.669Z,74.82
2022-12-05T07:43:46.472Z,74.77
2022-12-05T07:46:18.930Z,74.57
2022-12-05T07:48:50.636Z,74.66
2022-12-05T07:51:23.476Z,74.82
2022-12-05T07:53:55.991Z,74.87
2022-12-05T07:56:28.777Z,74.80
2022-12-05T07:59:01.262Z,74.71
2022-12-05T08:01:33.956Z,74.80
2022-12-05T08:04:10.713Z,74.83
2022-12-05T08:06:46.260Z,74.85
2022-12-05T08:09:18.614Z,75.01
2022-12-05T08:11:52.726Z,74.94
2022-12-05T08:14:25.479Z,75.06
2022-12-05T08:16:58.093Z,75.07
2022-12-05T08:19:30.559Z,74.87
2022-12-05T08:22:02.914Z,74.68
2022-12-05T08:24:35.441Z,74.78
2022-12-05T08:27:08.637Z,74.47
2022-12-05T08:29:40.903Z,74.53
2022-12-05T08:32:13.200Z,74.64
2022-12-05T08:34:45.511Z,74.54
2022-12-05T08:37:17.846Z,74.81
2022-12-05T08:39:51.135Z,74.74
2022-12-05T08:42:23.387Z,74.85
2022-12-05T08:44:55.839Z,74.81
2022-12-05T08:47:28.615Z,74.68
2022-12-05T08:49:59.559Z,74.43
2022-12-05T08:52:32.171Z,74.76
2022-12-05T08:55:04.760Z,74.78
2022-12-05T08:57:37.134Z,74.47
2022-12-05T09:00:12.399Z,74.87
2022-12-05T09:02:44.748Z,74.61
2022-12-05T09:05:27.586Z,74.66
2022-12-05T09:08:01.705Z,74.57
2022-12-05T09:10:34.186Z,74.81
2022-12-05T09:13:07.073Z,74.36
2022-12-05T09:15:41.186Z,74.25
2022-12-05T09:18:15.495Z,74.79
2022-12-05T09:20:47.949Z,74.71
2022-12-05T09:23:20.631Z,74.74
2022-12-05T09:25:58.313Z,74.48
2022-12-05T09:28:31.376Z,74.76
2022-12-05T09:31:05.304Z,74.43
2022-12-05T09:33:38.892Z,74.92
2022-12-05T09:36:14.776Z,75.14
2022-12-05T09:38:47.521Z,74.97
2022-12-05T09:41:46.093Z,74.78
2022-12-05T09:44:22.672Z,75.19
2022-12-05T09:46:58.237Z,74.76
2022-12-05T09:49:31.497Z,74.53
2022-12-05T09:52:04.602Z,74.54
2022-12-05T09:54:37.195Z,74.36
2022-12-05T09:57:08.219Z,74.54
2022-12-05T09:59:40.608Z,74.17
2022-12-05T10:02:26.042Z,74.53
2022-12-05T10:05:03.066Z,74.24
2022-12-05T10:07:39.654Z,74.51
2022-12-05T10:10:25.703Z,74.37
2022-12-05T10:13:09.117Z,74.37
2022-12-05T10:15:45.671Z,74.38
2022-12-05T10:18:28.796Z,74.76
2022-12-05T10:21:04.188Z,74.33
2022-12-05T10:23:57.084Z,74.06
2022-12-05T10:26:34.108Z,74.35
2022-12-05T10:29:13.676Z,74.39
2022-12-05T10:31:47.103Z,74.17
2022-12-05T10:34:23.420Z,74.27
2022-12-05T10:36:58.594Z,73.93
2022-12-05T10:39:31.873Z,74.28
2022-12-05T10:42:04.328Z,74.23
2022-12-05T10:44:37.722Z,74.07
2022-12-05T10:47:10.437Z,74.36
2022-12-05T10:49:45.110Z,73.90
2022-12-05T10:52:17.949Z,74.21
2022-12-05T10:54:53.098Z,74.25
2022-12-05T10:57:27.574Z,74.13
2022-12-05T11:00:10.385Z,73.93
2022-12-05T11:02:46.015Z,74.04
2022-12-05T11:05:19.029Z,74.18
2022-12-05T11:07:51.462Z,73.98
2022-12-05T11:10:26.630Z,73.92
2022-12-05T11:13:01.341Z,74.24
2022-12-05T11:15:34.353Z,74.13
2022-12-05T11:21:18.269Z,74.19
2022-12-05T11:23:51.903Z,74.42
2022-12-05T11:26:40.941Z,73.95
2022-12-05T11:29:32.376Z,74.76
2022-12-05T11:32:07.338Z,74.57
2022-12-05T11:34:43.779Z,74.57
2022-12-05T11:37:19.696Z,74.56
2022-12-05T11:39:52.016Z,74.24
2022-12-05T11:42:36.747Z,74.58
2022-12-05T11:45:35.187Z,74.17
2022-12-05T11:48:17.499Z,74.57
2022-12-05T11:51:00.426Z,74.38
2022-12-05T11:53:48.968Z,74.27
2022-12-05T11:56:31.859Z,74.43
2022-12-05T11:59:23.211Z,74.25
2022-12-05T12:02:04.015Z,74.77
2022-12-05T12:04:45.468Z,74.56
2022-12-05T12:07:26.997Z,74.69
2022-12-05T12:10:09.778Z,74.39
2022-12-05T12:12:48.593Z,74.28
2022-12-05T12:15:52.199Z,74.20
2022-12-05T12:18:48.393Z,74.34
2022-12-05T12:21:23.152Z,74.46
2022-12-05T12:24:04.205Z,73.94
2022-12-05T12:26:44.243Z,74.23
2022-12-05T12:29:26.640Z,74.40
2022-12-05T12:32:12.880Z,74.55
2022-12-05T12:35:06.703Z,74.39
2022-12-05T12:37:48.393Z,74.35
2022-12-05T12:40:25.942Z,74.31
2022-12-05T12:43:07.961Z,74.37
2022-12-05T12:45:49.421Z,74.08
2022-12-05T12:48:42.378Z,74.67
2022-12-05T12:51:16.281Z,74.28
2022-12-05T12:54:06.663Z,74.28
2022-12-05T12:56:48.166Z,74.67
2022-12-05T12:59:41.977Z,74.23
2022-12-05T13:02:19.783Z,74.86
2022-12-05T13:04:56.404Z,74.41
2022-12-05T13:07:33.829Z,74.07
2022-12-05T13:10:13.507Z,74.18
2022-12-05T13:12:47.265Z,74.54
2022-12-05T13:15:23.374Z,74.13
2022-12-05T13:17:57.680Z,74.12
2022-12-05T13:20:34.488Z,74.22
2022-12-05T13:23:08.546Z,74.04
2022-12-05T13:25:42.783Z,74.51
2022-12-05T13:28:27.174Z,74.54
2022-12-05T13:31:01.948Z,74.24
2022-12-05T13:33:37.220Z,74.29
2022-12-05T13:36:32.215Z,74.07
2022-12-05T13:39:23.715Z,74.42
2022-12-05T13:42:17.281Z,74.38
2022-12-05T13:44:52.036Z,74.39
2022-12-05T13:47:32.298Z,74.15
2022-12-05T13:54:20.082Z,74.43
2022-12-05T13:56:59.219Z,74.28
2022-12-05T14:00:05.175Z,74.72
2022-12-05T14:11:19.123Z,74.24
2022-12-05T14:13:52.083Z,74.28
2022-12-05T14:16:51.181Z,74.36
2022-12-05T14:19:46.875Z,74.44
2022-12-05T14:22:40.788Z,74.20
2022-12-05T14:25:26.219Z,74.38
2022-12-05T14:28:06.491Z,74.56
2022-12-05T14:30:52.123Z,74.35
2022-12-05T14:33:27.515Z,74.22
2022-12-05T14:36:15.329Z,74.48
2022-12-05T14:38:51.257Z,74.38
2022-12-05T14:41:37.087Z,74.70
2022-12-05T14:44:22.950Z,74.73
2022-12-05T14:47:04.034Z,74.33
2022-12-05T14:49:58.027Z,74.05
2022-12-05T14:52:38.597Z,74.11
2022-12-05T14:55:19.616Z,74.66
2022-12-05T14:58:10.945Z,74.34
2022-12-05T15:00:51.035Z,74.32
2022-12-05T15:03:38.488Z,74.35
2022-12-05T15:06:19.450Z,74.51
2022-12-05T15:09:43.927Z,74.41
2022-12-05T15:12:27.033Z,74.35
2022-12-05T15:15:08.392Z,74.27
2022-12-05T15:17:59.812Z,74.52
2022-12-05T15:20:45.767Z,74.15
2022-12-05T15:24:01.496Z,74.32
2022-12-05T15:26:46.809Z,74.24
2022-12-05T15:29:28.091Z,74.73
2022-12-05T15:32:05.222Z,74.30
2022-12-05T15:34:45.025Z,74.45
2022-12-05T15:37:22.252Z,73.96
2022-12-05T15:40:06.523Z,74.32
2022-12-05T15:42:42.846Z,74.51
2022-12-05T15:45:46.022Z,74.36
2022-12-05T15:48:35.659Z,74.24
2022-12-05T15:51:16.614Z,74.45
2022-12-05T15:53:59.553Z,74.26
2022-12-05T15:56:40.087Z,74.31
2022-12-05T15:59:18.755Z,74.24
2022-12-05T16:01:56.629Z,74.03
2022-12-05T16:04:54.836Z,74.35
2022-12-05T16:07:45.943Z,73.98
2022-12-05T16:10:37.293Z,74.01
2022-12-05T16:13:36.697Z,74.19
2022-12-05T16:16:19.682Z,74.49
2022-12-05T16:19:02.459Z,74.53
2022-12-05T16:21:43.003Z,74.53
2022-12-05T16:24:29.952Z,74.31
2022-12-05T16:27:16.852Z,74.44
2022-12-05T16:29:52.717Z,74.30
2022-12-05T16:32:38.016Z,74.34
2022-12-05T16:35:49.291Z,74.34
2022-12-05T16:38:25.848Z,74.56
2022-12-05T16:41:02.698Z,74.48
2022-12-05T16:43:48.431Z,74.47
2022-12-05T16:46:53.711Z,74.25
2022-12-05T16:49:44.342Z,74.36
2022-12-05T16:52:24.533Z,74.22
2022-12-05T16:55:07.924Z,74.48
2022-12-05T16:57:47.924Z,74.03
2022-12-05T17:00:52.305Z,74.41
2022-12-05T17:03:34.402Z,74.27
2022-12-05T17:06:12.803Z,74.49
2022-12-05T17:08:46.623Z,74.74
2022-12-05T17:11:22.100Z,74.48
2022-12-05T17:13:55.245Z,74.40
2022-12-05T17:16:29.385Z,74.37
2022-12-05T17:19:06.600Z,74.58
2022-12-05T17:21:39.420Z,74.59
2022-12-05T17:24:17.396Z,74.54
2022-12-05T17:26:50.026Z,74.46
2022-12-05T17:29:22.349Z,74.50
2022-12-05T17:31:54.707Z,74.59
2022-12-05T17:34:27.129Z,74.49
2022-12-05T17:37:01.728Z,74.58
2022-12-05T17:39:36.258Z,74.57
2022-12-05T17:42:09.480Z,74.75
2022-12-05T17:44:42.958Z,74.66
2022-12-05T17:47:15.393Z,74.55
2022-12-05T17:49:47.941Z,74.46
2022-12-05T17:52:21.908Z,74.84
2022-12-05T17:54:54.893Z,74.72
2022-12-05T17:57:27.702Z,74.63
2022-12-05T18:00:04.333Z,74.77
2022-12-05T18:02:37.030Z,74.48
2022-12-05T18:05:10.971Z,74.84
2022-12-05T18:07:45.335Z,74.51
2022-12-05T18:10:21.106Z,74.38
2022-12-05T18:12:54.726Z,74.32
2022-12-05T18:15:27.070Z,74.24
2022-12-05T18:18:03.168Z,74.77
2022-12-05T18:20:36.940Z,74.42
2022-12-05T18:23:09.251Z,74.75
2022-12-05T18:25:41.712Z,74.55
2022-12-05T18:28:17.863Z,74.56
2022-12-05T18:30:51.914Z,74.38
2022-12-05T18:33:24.480Z,74.57
2022-12-05T18:35:56.754Z,74.94
2022-12-05T18:38:29.078Z,74.74
2022-12-05T18:41:03.980Z,74.83
2022-12-05T18:43:37.503Z,74.65
2022-12-05T18:46:09.981Z,74.47
2022-12-05T18:48:44.807Z,74.77
2022-12-05T18:51:21.984Z,74.70
2022-12-05T18:53:56.893Z,75.03
2022-12-05T18:56:31.276Z,74.80
2022-12-05T18:59:05.033Z,74.64
2022-12-05T19:01:39.788Z,74.93
2022-12-05T19:04:13.653Z,74.57
2022-12-05T19:06:49.889Z,74.79
2022-12-05T19:09:23.684Z,75.03
2022-12-05T19:11:58.801Z,74.70
2022-12-05T19:14:33.312Z,74.87
2022-12-05T19:17:05.697Z,74.69
2022-12-05T19:19:38.064Z,74.56
2022-12-05T19:22:10.379Z,74.70
2022-12-05T19:24:42.748Z,74.91
2022-12-05T19:27:15.499Z,74.87
2022-12-05T19:29:47.808Z,74.64
2022-12-05T19:32:20.080Z,74.67
2022-12-05T19:34:52.427Z,74.53
2022-12-05T19:37:24.689Z,74.40
2022-12-05T19:39:57.138Z,74.39
2022-12-05T19:42:31.186Z,74.88
2022-12-05T19:45:08.152Z,74.67
2022-12-05T19:47:42.656Z,74.50
2022-12-05T19:50:14.866Z,74.98
2022-12-05T19:52:47.042Z,74.66
2022-12-05T19:55:19.335Z,74.32
2022-12-05T19:57:51.990Z,74.39
2022-12-05T20:00:22.696Z,74.21
2022-12-05T20:02:55.717Z,74.41
2022-12-05T20:05:29.670Z,74.75
2022-12-05T20:08:02.481Z,74.60
2022-12-05T20:10:37.912Z,75.07
2022-12-05T20:13:44.757Z,74.53
2022-12-05T20:16:03.682Z,74.78
2022-12-05T20:18:38.163Z,74.63
2022-12-05T20:21:12.320Z,74.80
2022-12-05T20:23:44.589Z,74.50
2022-12-05T20:26:19.313Z,74.51
2022-12-05T20:28:51.795Z,74.73
2022-12-05T20:31:25.586Z,74.94
2022-12-05T20:33:58.223Z,74.60
2022-12-05T20:36:32.778Z,74.57
2022-12-05T20:39:06.914Z,74.62
2022-12-05T20:41:40.812Z,74.84
2022-12-05T20:44:14.908Z,74.51
2022-12-05T20:46:51.886Z,74.64
2022-12-05T20:49:24.999Z,74.70
2022-12-05T20:51:57.657Z,74.67
2022-12-05T20:54:29.052Z,74.66
2022-12-05T20:57:03.178Z,74.66
2022-12-05T20:59:35.399Z,74.79
2022-12-05T21:02:08.840Z,74.53
2022-12-05T21:04:41.291Z,74.67
2022-12-05T21:07:13.494Z,74.51
2022-12-05T21:09:46.003Z,74.69
2022-12-05T21:12:18.143Z,74.79
2022-12-05T21:14:50.850Z,74.93
2022-12-05T21:17:23.184Z,74.55
2022-12-05T21:19:55.943Z,74.79
2022-12-05T21:22:28.158Z,75.01
2022-12-05T21:25:00.370Z,74.94
2022-12-05T21:27:32.554Z,74.73
2022-12-05T21:30:05.336Z,74.97
2022-12-05T21:32:35.843Z,74.85
2022-12-05T21:35:09.103Z,74.79
2022-12-05T21:37:41.592Z,74.59
2022-12-05T21:40:14.693Z,75.06
2022-12-05T21:42:46.871Z,75.02
2022-12-05T21:45:19.195Z,74.90
2022-12-05T21:47:51.802Z,75.00
2022-12-05T21:50:22.332Z,74.79
2022-12-05T21:52:54.568Z,75.03
2022-12-05T21:55:26.786Z,75.02
2022-12-05T21:57:59.749Z,75.13
2022-12-05T22:00:32.100Z,75.13
2022-12-05T22:03:04.749Z,74.83
2022-12-05T22:05:35.303Z,75.48
2022-12-05T22:08:07.989Z,74.87
2022-12-05T22:10:40.563Z,74.99
2022-12-05T22:13:11.353Z,75.16
2022-12-05T22:15:43.538Z,75.21
2022-12-05T22:18:17.227Z,75.14
2022-12-05T22:20:58.479Z,74.75
2022-12-05T22:23:33.785Z,74.80
2022-12-05T22:26:08.050Z,75.08
2022-12-05T22:28:42.771Z,75.01
2022-12-05T22:31:17.506Z,75.48
2022-12-05T22:33:50.058Z,74.99
2022-12-05T22:36:21.619Z,74.94
2022-12-05T22:38:55.752Z,75.18
2022-12-05T22:41:30.415Z,75.26
2022-12-05T22:44:03.737Z,75.14
2022-12-05T22:46:37.119Z,75.41
2022-12-05T22:49:12.246Z,74.64
2022-12-05T22:51:45.106Z,74.96
2022-12-05T22:54:18.808Z,75.30
2022-12-05T22:56:52.326Z,75.33
2022-12-05T22:59:25.723Z,75.16
2022-12-05T23:01:59.428Z,75.17
2022-12-05T23:04:32.796Z,74.93
2022-12-05T23:07:06.103Z,74.52
2022-12-05T23:09:39.782Z,74.85
2022-12-05T23:12:12.945Z,74.90
2022-12-05T23:14:45.784Z,75.05
2022-12-05T23:24:28.212Z,75.09
2022-12-05T23:27:00.436Z,74.99
2022-12-05T23:29:32.631Z,75.09
2022-12-05T23:32:04.991Z,75.40
2022-12-05T23:34:37.275Z,75.44
2022-12-05T23:37:09.535Z,75.31
2022-12-05T23:39:41.701Z,75.60
2022-12-05T23:42:15.436Z,75.26
2022-12-05T23:44:47.880Z,75.49
2022-12-05T23:47:20.103Z,75.11
2022-12-05T23:49:52.434Z,75.45
2022-12-05T23:52:24.894Z,75.63
2022-12-05T23:54:57.160Z,75.35
2022-12-05T23:57:29.466Z,75.45
